createdAt,value
2022-08-22T00:00:13.428Z,98606.91
2022-08-22T00:02:59.228Z,98646.47
2022-08-22T00:03:12.288Z,98646.53
2022-08-22T00:03:17.341Z,98608.56
2022-08-22T00:05:53.456Z,98616.16
2022-08-22T00:08:29.110Z,98618.72
2022-08-22T00:11:04.265Z,98624.91
2022-08-22T00:13:40.387Z,98626.72
2022-08-22T00:16:17.704Z,98631.19
2022-08-22T00:18:50.689Z,98636.06
2022-08-22T00:21:23.150Z,98635.19
2022-08-22T00:23:55.819Z,98635.75
2022-08-22T00:26:35.238Z,98638.19
2022-08-22T00:29:08.916Z,98632.13
2022-08-22T00:31:41.202Z,98637.78
2022-08-22T00:34:15.437Z,98630.28
2022-08-22T00:36:48.190Z,98623.75
2022-08-22T00:39:20.838Z,98633.78
2022-08-22T00:42:31.489Z,98625.75
2022-08-22T00:45:40.792Z,98627.31
2022-08-22T00:48:31.814Z,98627.41
2022-08-22T00:51:53.260Z,98630.06
2022-08-22T00:54:37.663Z,98629.63
2022-08-22T00:57:40.495Z,98621.66
2022-08-22T01:00:20.827Z,98619.47
2022-08-22T01:03:28.991Z,98615.84
2022-08-22T01:06:09.627Z,98611.75
2022-08-22T01:08:55.643Z,98609.22
2022-08-22T01:11:36.942Z,98613.63
2022-08-22T01:14:35.054Z,98619.56
2022-08-22T01:17:35.167Z,98625.50
2022-08-22T01:20:49.427Z,98638.16
2022-08-22T01:23:58.702Z,98641.59
2022-08-22T01:27:11.904Z,98639.16
2022-08-22T01:30:13.154Z,98639.16
2022-08-22T01:33:16.598Z,98630.16
2022-08-22T01:36:05.138Z,98630.22
2022-08-22T01:38:55.395Z,98633.00
2022-08-22T01:42:02.020Z,98633.09
2022-08-22T01:44:55.629Z,98631.91
2022-08-22T01:47:28.131Z,98635.41
2022-08-22T01:50:14.140Z,98627.16
2022-08-22T01:52:50.262Z,98623.84
2022-08-22T01:55:30.771Z,98627.59
2022-08-22T01:58:03.763Z,98627.06
2022-08-22T02:00:52.626Z,98631.50
2022-08-22T02:03:27.051Z,98638.09
2022-08-22T02:06:03.974Z,98647.13
2022-08-22T02:08:42.415Z,98644.69
2022-08-22T02:11:13.208Z,98645.34
2022-08-22T02:13:54.255Z,98646.44
2022-08-22T02:16:34.078Z,98644.13
2022-08-22T02:19:19.685Z,98659.31
2022-08-22T02:21:54.091Z,98655.91
2022-08-22T02:24:46.144Z,98655.91
2022-08-22T02:27:36.314Z,98644.28
2022-08-22T02:30:09.264Z,98641.06
2022-08-22T02:32:52.852Z,98641.97
2022-08-22T02:35:28.601Z,98637.88
2022-08-22T02:38:07.321Z,98639.09
2022-08-22T02:40:43.116Z,98639.41
2022-08-22T02:43:20.771Z,98649.41
2022-08-22T02:45:57.160Z,98639.09
2022-08-22T02:48:45.760Z,98647.13
2022-08-22T02:51:20.276Z,98647.56
2022-08-22T02:53:56.548Z,98640.94
2022-08-22T02:56:34.827Z,98644.81
2022-08-22T02:59:16.582Z,98643.91
2022-08-22T03:01:47.321Z,98646.47
2022-08-22T03:04:46.859Z,98645.69
2022-08-22T03:07:26.721Z,98659.34
2022-08-22T03:10:02.887Z,98664.84
2022-08-22T03:12:41.256Z,98666.69
2022-08-22T03:15:27.561Z,98663.72
2022-08-22T03:18:01.682Z,98660.09
2022-08-22T03:20:52.164Z,98662.72
2022-08-22T03:23:37.610Z,98664.63
2022-08-22T03:26:14.368Z,98660.22
2022-08-22T03:28:52.677Z,98666.38
2022-08-22T03:31:29.109Z,98652.66
2022-08-22T03:34:22.746Z,98655.63
2022-08-22T03:37:05.565Z,98654.59
2022-08-22T03:39:50.471Z,98664.63
2022-08-22T03:42:37.660Z,98660.75
2022-08-22T03:45:38.586Z,98662.75
2022-08-22T03:48:40.080Z,98674.94
2022-08-22T03:51:32.509Z,98673.66
2022-08-22T03:54:30.373Z,98671.56
2022-08-22T03:57:50.304Z,98679.38
2022-08-22T04:01:01.607Z,98679.72
2022-08-22T04:04:02.394Z,98685.44
2022-08-22T04:07:02.034Z,98688.19
2022-08-22T04:10:11.636Z,98681.47
2022-08-22T04:13:14.041Z,98689.13
2022-08-22T04:16:13.945Z,98693.19
2022-08-22T04:19:11.412Z,98698.84
2022-08-22T04:21:54.162Z,98704.22
2022-08-22T04:24:53.238Z,98693.09
2022-08-22T04:27:28.352Z,98690.97
2022-08-22T04:30:03.388Z,98690.97
2022-08-22T04:32:39.296Z,98690.66
2022-08-22T04:35:12.424Z,98690.97
2022-08-22T04:37:48.258Z,98681.78
2022-08-22T04:40:25.653Z,98684.75
2022-08-22T04:42:58.444Z,98680.13
2022-08-22T04:45:34.369Z,98684.13
2022-08-22T04:48:09.940Z,98689.16
2022-08-22T04:50:44.686Z,98694.03
2022-08-22T04:53:30.233Z,98697.47
2022-08-22T04:56:08.202Z,98703.69
2022-08-22T04:58:57.656Z,98705.81
2022-08-22T05:01:38.540Z,98706.88
2022-08-22T05:04:12.786Z,98709.44
2022-08-22T05:06:46.812Z,98710.63
2022-08-22T05:09:21.208Z,98715.28
2022-08-22T05:11:53.206Z,98727.00
2022-08-22T05:14:29.408Z,98733.22
2022-08-22T05:17:01.346Z,98731.81
2022-08-22T05:19:34.975Z,98730.72
2022-08-22T05:22:05.103Z,98738.75
2022-08-22T05:24:38.873Z,98743.28
2022-08-22T05:27:13.644Z,98743.88
2022-08-22T05:29:47.306Z,98746.25
2022-08-22T05:32:23.105Z,98745.38
2022-08-22T05:34:55.679Z,98741.50
2022-08-22T05:37:27.664Z,98747.28
2022-08-22T05:40:01.199Z,98749.91
2022-08-22T05:42:33.306Z,98753.78
2022-08-22T05:45:03.254Z,98755.13
2022-08-22T05:47:38.113Z,98756.13
2022-08-22T05:50:15.585Z,98759.66
2022-08-22T05:52:59.225Z,98757.06
2022-08-22T05:55:32.602Z,98758.41
2022-08-22T05:58:31.380Z,98764.13
2022-08-22T06:01:08.373Z,98767.66
2022-08-22T06:03:41.116Z,98765.50
2022-08-22T06:06:16.142Z,98757.50
2022-08-22T06:08:50.505Z,98758.13
2022-08-22T06:11:33.784Z,98761.97
2022-08-22T06:14:13.885Z,98761.03
2022-08-22T06:16:49.040Z,98759.63
2022-08-22T06:19:20.604Z,98757.63
2022-08-22T06:21:55.807Z,98763.03
2022-08-22T06:24:28.626Z,98761.78
2022-08-22T06:27:06.875Z,98759.50
2022-08-22T06:29:39.555Z,98774.25
2022-08-22T06:32:15.306Z,98773.47
2022-08-22T06:34:46.912Z,98773.19
2022-08-22T06:37:25.780Z,98768.06
2022-08-22T06:39:56.691Z,98769.91
2022-08-22T06:42:28.310Z,98775.75
2022-08-22T06:45:02.215Z,98770.84
2022-08-22T06:47:34.283Z,98768.06
2022-08-22T06:50:13.954Z,98769.91
2022-08-22T06:52:57.908Z,98770.75
2022-08-22T06:55:28.849Z,98771.50
2022-08-22T06:58:04.215Z,98773.03
2022-08-22T07:00:35.208Z,98771.81
2022-08-22T07:03:12.045Z,98774.88
2022-08-22T07:05:43.597Z,98774.97
2022-08-22T07:08:22.594Z,98776.50
2022-08-22T07:10:59.257Z,98779.44
2022-08-22T07:13:29.288Z,98784.03
2022-08-22T07:16:00.137Z,98784.38
2022-08-22T07:18:31.973Z,98783.16
2022-08-22T07:21:04.380Z,98784.16
2022-08-22T07:23:40.577Z,98781.91
2022-08-22T07:26:26.120Z,98790.66
2022-08-22T07:29:00.809Z,98783.09
2022-08-22T07:31:39.520Z,98777.84
2022-08-22T07:34:33.637Z,98780.56
2022-08-22T07:37:07.499Z,98780.22
2022-08-22T07:39:45.881Z,98776.28
2022-08-22T07:42:17.913Z,98774.03
2022-08-22T07:45:03.540Z,98779.94
2022-08-22T07:47:49.631Z,98786.69
2022-08-22T07:50:25.126Z,98790.78
2022-08-22T07:52:55.082Z,98784.38
2022-08-22T07:55:27.091Z,98779.19
2022-08-22T07:57:59.517Z,98781.91
2022-08-22T08:00:29.038Z,98782.13
2022-08-22T08:03:03.695Z,98780.41
2022-08-22T08:05:36.059Z,98778.13
2022-08-22T08:08:13.860Z,98776.81
2022-08-22T08:10:46.221Z,98771.66
2022-08-22T08:13:21.587Z,98774.69
2022-08-22T08:15:52.036Z,98775.91
2022-08-22T08:18:23.641Z,98774.66
2022-08-22T08:20:54.575Z,98768.69
2022-08-22T08:23:25.807Z,98767.66
2022-08-22T08:26:01.207Z,98767.66
2022-08-22T08:28:35.188Z,98770.28
2022-08-22T08:31:17.134Z,98768.50
2022-08-22T08:33:48.785Z,98774.41
2022-08-22T08:36:48.862Z,98770.09
2022-08-22T08:39:32.494Z,98763.28
2022-08-22T08:46:41.127Z,98756.81
2022-08-22T08:49:39.626Z,98756.44
2022-08-22T08:52:58.546Z,98754.44
2022-08-22T08:55:39.857Z,98753.25
2022-08-22T08:58:32.165Z,98746.09
2022-08-22T09:01:19.554Z,98749.97
2022-08-22T09:04:26.793Z,98748.94
2022-08-22T09:07:16.240Z,98749.63
2022-08-22T09:10:09.738Z,98743.25
2022-08-22T09:13:12.362Z,98736.53
2022-08-22T09:16:10.033Z,98735.91
2022-08-22T09:19:11.464Z,98734.63
2022-08-22T09:22:04.175Z,98729.97
2022-08-22T09:25:06.516Z,98730.84
2022-08-22T09:27:40.150Z,98726.66
2022-08-22T09:30:12.801Z,98728.44
2022-08-22T09:32:54.832Z,98724.56
2022-08-22T09:35:32.174Z,98725.00
2022-08-22T09:38:23.966Z,98728.56
2022-08-22T09:41:02.294Z,98718.38
2022-08-22T09:43:44.157Z,98723.31
2022-08-22T09:46:31.572Z,98718.78
2022-08-22T09:49:13.953Z,98720.56
2022-08-22T09:51:54.846Z,98718.44
2022-08-22T09:54:35.163Z,98713.03
2022-08-22T09:57:22.502Z,98710.88
2022-08-22T10:00:17.469Z,98721.91
2022-08-22T10:03:03.786Z,98716.19
2022-08-22T10:05:43.944Z,98707.28
2022-08-22T10:08:26.278Z,98706.34
2022-08-22T10:11:26.039Z,98710.75
2022-08-22T10:14:01.675Z,98705.31
2022-08-22T10:17:01.814Z,98709.34
2022-08-22T10:19:38.117Z,98705.97
2022-08-22T10:22:44.471Z,98712.53
2022-08-22T10:25:28.494Z,98710.03
2022-08-22T10:28:12.063Z,98699.16
2022-08-22T10:30:55.512Z,98700.53
2022-08-22T10:33:31.208Z,98694.13
2022-08-22T10:36:05.419Z,98698.97
2022-08-22T10:38:46.232Z,98699.00
2022-08-22T10:41:27.167Z,98695.44
2022-08-22T10:44:07.749Z,98704.25
2022-08-22T10:46:47.689Z,98703.28
2022-08-22T10:49:28.284Z,98701.28
2022-08-22T10:52:13.669Z,98700.03
2022-08-22T10:54:53.957Z,98699.97
2022-08-22T10:57:52.858Z,98693.00
2022-08-22T11:00:46.187Z,98696.00
2022-08-22T11:03:23.346Z,98695.44
2022-08-22T11:05:55.991Z,98690.91
2022-08-22T11:08:56.926Z,98688.00
2022-08-22T11:11:47.461Z,98684.66
2022-08-22T11:14:41.854Z,98689.31
2022-08-22T11:17:29.899Z,98691.63
2022-08-22T11:20:27.663Z,98690.75
2022-08-22T11:23:17.504Z,98691.03
2022-08-22T11:25:55.261Z,98688.28
2022-08-22T11:28:54.386Z,98674.78
2022-08-22T11:31:31.614Z,98676.31
2022-08-22T11:34:08.144Z,98669.00
2022-08-22T11:36:46.355Z,98671.53
2022-08-22T11:39:24.907Z,98662.16
2022-08-22T11:42:00.735Z,98667.47
2022-08-22T11:44:50.915Z,98669.97
2022-08-22T11:47:26.876Z,98665.38
2022-08-22T11:50:01.714Z,98668.31
2022-08-22T11:52:54.789Z,98669.56
2022-08-22T11:55:34.350Z,98674.28
2022-08-22T11:58:21.221Z,98666.72
2022-08-22T12:01:03.742Z,98667.38
2022-08-22T12:03:55.690Z,98674.97
2022-08-22T12:06:59.513Z,98673.75
2022-08-22T12:09:42.307Z,98667.22
2022-08-22T12:12:26.992Z,98675.69
2022-08-22T12:15:01.148Z,98679.13
2022-08-22T12:18:02.076Z,98675.88
2022-08-22T12:20:53.145Z,98684.41
2022-08-22T12:23:48.749Z,98680.31
2022-08-22T12:26:27.560Z,98682.72
2022-08-22T12:29:16.866Z,98686.63
2022-08-22T12:32:32.287Z,98678.00
2022-08-22T12:35:19.604Z,98672.59
2022-08-22T12:38:29.248Z,98668.78
2022-08-22T12:41:27.720Z,98665.50
2022-08-22T12:44:03.786Z,98660.75
2022-08-22T12:46:47.183Z,98663.06
2022-08-22T12:49:38.679Z,98663.78
2022-08-22T12:52:26.256Z,98661.19
2022-08-22T12:55:13.056Z,98655.72
2022-08-22T12:57:54.452Z,98654.78
2022-08-22T13:00:32.209Z,98655.72
2022-08-22T13:03:03.850Z,98655.09
2022-08-22T13:05:40.936Z,98656.31
2022-08-22T13:08:17.527Z,98647.81
2022-08-22T13:10:48.776Z,98645.81
2022-08-22T13:13:36.928Z,98640.72
2022-08-22T13:16:09.160Z,98646.00
2022-08-22T13:18:53.536Z,98643.94
2022-08-22T13:21:31.587Z,98641.84
2022-08-22T13:24:16.773Z,98649.50
2022-08-22T13:26:49.744Z,98641.75
2022-08-22T13:29:26.473Z,98638.19
2022-08-22T13:32:00.450Z,98641.59
2022-08-22T13:34:43.528Z,98648.31
2022-08-22T13:37:17.379Z,98645.34
2022-08-22T13:39:52.845Z,98638.00
2022-08-22T13:42:30.129Z,98643.66
2022-08-22T13:45:05.597Z,98641.75
2022-08-22T13:47:39.597Z,98649.22
2022-08-22T13:50:14.947Z,98651.47
2022-08-22T13:52:52.173Z,98658.69
2022-08-22T13:55:31.253Z,98659.97
2022-08-22T13:58:06.724Z,98660.19
2022-08-22T14:01:07.206Z,98663.38
2022-08-22T14:03:45.677Z,98657.63
2022-08-22T14:06:36.873Z,98666.66
2022-08-22T14:09:31.218Z,98662.91
2022-08-22T14:12:11.971Z,98674.91
2022-08-22T14:14:43.261Z,98668.97
2022-08-22T14:17:18.178Z,98663.22
2022-08-22T14:19:59.490Z,98664.28
2022-08-22T14:22:35.798Z,98660.63
2022-08-22T14:25:09.228Z,98667.31
2022-08-22T14:27:45.600Z,98667.38
2022-08-22T14:30:18.786Z,98662.78
2022-08-22T14:32:52.117Z,98666.31
2022-08-22T14:35:34.666Z,98666.44
2022-08-22T14:38:21.523Z,98680.16
2022-08-22T14:40:58.921Z,98688.25
2022-08-22T14:43:52.916Z,98696.03
2022-08-22T14:46:26.877Z,98694.41
2022-08-22T14:49:28.673Z,98690.25
2022-08-22T14:52:06.690Z,98686.28
2022-08-22T14:54:38.038Z,98681.63
2022-08-22T14:57:19.789Z,98690.72
2022-08-22T14:59:53.268Z,98685.84
2022-08-22T15:02:29.225Z,98683.25
2022-08-22T15:05:01.688Z,98677.72
2022-08-22T15:07:33.854Z,98668.53
2022-08-22T15:10:06.211Z,98667.03
2022-08-22T15:12:37.701Z,98649.69
2022-08-22T15:15:13.960Z,98645.66
2022-08-22T15:17:45.276Z,98648.13
2022-08-22T15:20:27.660Z,98644.41
2022-08-22T15:22:59.831Z,98652.53
2022-08-22T15:25:32.392Z,98655.66
2022-08-22T15:28:06.845Z,98653.50
2022-08-22T15:30:48.564Z,98650.44
2022-08-22T15:33:26.974Z,98648.56
2022-08-22T15:36:15.953Z,98648.44
2022-08-22T15:38:48.124Z,98652.41
2022-08-22T15:41:41.021Z,98650.88
2022-08-22T15:44:18.292Z,98644.88
2022-08-22T15:47:24.144Z,98645.84
2022-08-22T15:49:59.029Z,98650.13
2022-08-22T15:52:31.990Z,98641.22
2022-08-22T15:55:25.349Z,98649.22
2022-08-22T15:58:04.995Z,98646.75
2022-08-22T16:00:43.870Z,98643.38
2022-08-22T16:03:25.924Z,98638.44
2022-08-22T16:05:58.435Z,98640.13
2022-08-22T16:08:33.077Z,98639.97
2022-08-22T16:11:23.536Z,98642.91
2022-08-22T16:14:21.423Z,98653.06
2022-08-22T16:17:03.399Z,98656.00
2022-08-22T16:19:34.837Z,98662.75
2022-08-22T16:22:10.479Z,98661.81
2022-08-22T16:25:02.446Z,98649.84
2022-08-22T16:27:31.286Z,98653.38
2022-08-22T16:30:15.848Z,98647.69
2022-08-22T16:32:56.452Z,98652.00
2022-08-22T16:36:02.253Z,98647.53
2022-08-22T16:38:42.139Z,98652.78
2022-08-22T16:41:28.703Z,98642.63
2022-08-22T16:44:30.192Z,98646.75
2022-08-22T16:47:11.726Z,98648.91
2022-08-22T16:49:56.162Z,98648.75
2022-08-22T16:52:55.624Z,98652.63
2022-08-22T16:55:47.939Z,98649.69
2022-08-22T16:58:57.524Z,98657.50
2022-08-22T17:02:01.727Z,98665.81
2022-08-22T17:04:41.575Z,98673.19
2022-08-22T17:07:22.811Z,98677.03
2022-08-22T17:10:12.981Z,98675.19
2022-08-22T17:12:58.735Z,98685.94
2022-08-22T17:15:35.698Z,98688.09
2022-08-22T17:18:27.964Z,98694.53
2022-08-22T17:21:07.104Z,98700.22
2022-08-22T17:23:42.060Z,98705.44
2022-08-22T17:26:21.222Z,98711.25
2022-08-22T17:29:06.377Z,98718.91
2022-08-22T17:31:44.066Z,98714.28
2022-08-22T17:34:26.220Z,98710.94
2022-08-22T17:37:10.278Z,98726.91
2022-08-22T17:40:09.494Z,98724.88
2022-08-22T17:43:15.291Z,98723.91
2022-08-22T17:46:04.303Z,98718.91
2022-08-22T17:48:43.691Z,98719.69
2022-08-22T17:51:28.341Z,98719.81
2022-08-22T17:54:03.428Z,98722.19
2022-08-22T17:56:40.559Z,98719.09
2022-08-22T17:59:22.421Z,98717.59
2022-08-22T18:02:00.487Z,98731.41
2022-08-22T18:04:35.840Z,98727.41
2022-08-22T18:07:29.678Z,98732.59
2022-08-22T18:10:03.190Z,98729.41
2022-08-22T18:12:36.756Z,98727.28
2022-08-22T18:15:10.330Z,98720.94
2022-08-22T18:17:48.780Z,98728.28
2022-08-22T18:20:25.209Z,98726.28
2022-08-22T18:22:58.889Z,98734.22
2022-08-22T18:25:42.834Z,98738.06
2022-08-22T18:28:23.499Z,98733.69
2022-08-22T18:30:59.601Z,98740.53
2022-08-22T18:33:35.207Z,98732.06
2022-08-22T18:36:11.333Z,98736.38
2022-08-22T18:38:53.660Z,98741.38
2022-08-22T18:41:31.492Z,98739.06
2022-08-22T18:44:01.608Z,98739.63
2022-08-22T18:46:52.145Z,98730.78
2022-08-22T18:49:45.791Z,98736.66
2022-08-22T18:52:19.573Z,98750.94
2022-08-22T18:55:22.998Z,98763.00
2022-08-22T18:58:10.039Z,98757.44
2022-08-22T19:01:03.315Z,98764.72
2022-08-22T19:03:49.500Z,98771.16
2022-08-22T19:06:46.248Z,98764.53
2022-08-22T19:09:40.821Z,98766.34
2022-08-22T19:12:27.168Z,98757.97
2022-08-22T19:15:33.968Z,98750.34
2022-08-22T19:18:37.686Z,98748.28
2022-08-22T19:21:38.170Z,98744.13
2022-08-22T19:24:12.154Z,98741.91
2022-08-22T19:26:47.937Z,98747.44
2022-08-22T19:29:56.604Z,98748.56
2022-08-22T19:32:59.444Z,98749.44
2022-08-22T19:35:41.396Z,98753.00
2022-08-22T19:38:12.203Z,98754.22
2022-08-22T19:40:58.631Z,98759.63
2022-08-22T19:43:34.572Z,98752.56
2022-08-22T19:46:15.198Z,98755.66
2022-08-22T19:48:47.750Z,98755.19
2022-08-22T19:51:27.373Z,98754.19
2022-08-22T19:54:20.446Z,98757.63
2022-08-22T19:57:07.020Z,98774.09
2022-08-22T19:59:51.056Z,98776.88
2022-08-22T20:02:32.259Z,98789.03
2022-08-22T20:05:22.374Z,98791.28
2022-08-22T20:08:03.091Z,98801.00
2022-08-22T20:10:43.344Z,98795.28
2022-08-22T20:13:23.187Z,98789.00
2022-08-22T20:16:17.248Z,98786.66
2022-08-22T20:19:14.618Z,98797.69
2022-08-22T20:21:50.053Z,98794.47
2022-08-22T20:24:24.817Z,98799.22
2022-08-22T20:27:13.200Z,98809.91
2022-08-22T20:29:49.325Z,98817.97
2022-08-22T20:32:21.602Z,98832.66
2022-08-22T20:34:55.670Z,98822.94
2022-08-22T20:37:44.973Z,98829.56
2022-08-22T20:40:55.235Z,98817.44
2022-08-22T20:43:18.377Z,98834.63
2022-08-22T20:46:06.853Z,98838.28
2022-08-22T20:48:41.294Z,98842.13
2022-08-22T20:51:14.185Z,98842.38
2022-08-22T20:53:42.828Z,98847.69
2022-08-22T20:56:12.081Z,98851.97
2022-08-22T20:58:47.150Z,98844.59
2022-08-22T21:01:18.936Z,98844.72
2022-08-22T21:03:50.558Z,98846.69
2022-08-22T21:06:22.692Z,98830.31
2022-08-22T21:09:14.344Z,98829.31
2022-08-22T21:12:08.731Z,98834.69
2022-08-22T21:14:44.627Z,98830.88
2022-08-22T21:17:27.259Z,98827.66
2022-08-22T21:19:57.866Z,98820.91
2022-08-22T21:22:31.845Z,98816.06
2022-08-22T21:25:01.802Z,98810.03
2022-08-22T21:27:33.215Z,98798.34
2022-08-22T21:30:03.987Z,98803.84
2022-08-22T21:32:55.038Z,98799.34
2022-08-22T21:35:30.537Z,98800.53
2022-08-22T21:38:00.824Z,98784.06
2022-08-22T21:40:33.690Z,98774.88
2022-08-22T21:43:09.044Z,98773.03
2022-08-22T21:45:44.155Z,98767.75
2022-08-22T21:48:43.812Z,98762.81
2022-08-22T21:51:30.013Z,98762.81
2022-08-22T21:54:28.247Z,98762.59
2022-08-22T21:56:58.094Z,98759.00
2022-08-22T21:59:51.717Z,98766.25
2022-08-22T22:02:31.316Z,98769.78
2022-08-22T22:05:08.399Z,98779.63
2022-08-22T22:07:38.584Z,98785.44
2022-08-22T22:10:09.655Z,98783.22
2022-08-22T22:12:41.067Z,98794.03
2022-08-22T22:15:10.819Z,98799.88
2022-08-22T22:17:39.396Z,98803.63
2022-08-22T22:20:09.875Z,98819.09
2022-08-22T22:22:46.057Z,98826.81
2022-08-22T22:25:40.569Z,98826.72
2022-08-22T22:28:07.640Z,98827.28
2022-08-22T22:30:36.450Z,98833.69
2022-08-22T22:33:04.755Z,98826.16
2022-08-22T22:35:34.626Z,98836.63
2022-08-22T22:38:02.887Z,98827.78
2022-08-22T22:40:31.182Z,98818.63
2022-08-22T22:42:59.377Z,98818.31
2022-08-22T22:45:27.719Z,98816.28
2022-08-22T22:47:55.958Z,98814.06
2022-08-22T22:50:24.293Z,98810.31
2022-08-22T22:52:54.301Z,98815.97
2022-08-22T22:55:24.092Z,98826.22
2022-08-22T22:57:58.675Z,98834.41
2022-08-22T23:00:30.551Z,98829.13
2022-08-22T23:03:00.353Z,98829.78
2022-08-22T23:05:29.286Z,98833.13
2022-08-22T23:07:59.571Z,98836.19
2022-08-22T23:10:30.063Z,98831.69
2022-08-22T23:12:58.593Z,98830.38
2022-08-22T23:15:27.509Z,98822.94
2022-08-22T23:17:55.790Z,98818.97
2022-08-22T23:20:24.591Z,98829.88
2022-08-22T23:22:52.704Z,98832.19
2022-08-22T23:25:22.430Z,98839.72
2022-08-22T23:27:52.478Z,98841.91
2022-08-22T23:30:21.139Z,98844.25
2022-08-22T23:32:49.294Z,98846.53
2022-08-22T23:35:17.557Z,98849.75
2022-08-22T23:37:45.632Z,98847.00
2022-08-22T23:40:13.974Z,98855.47
2022-08-22T23:42:43.631Z,98843.22
2022-08-22T23:45:12.105Z,98849.31
2022-08-22T23:47:40.386Z,98850.16
2022-08-22T23:50:08.833Z,98844.00
2022-08-22T23:52:36.925Z,98837.81
2022-08-22T23:55:05.911Z,98832.00
2022-08-22T23:57:34.379Z,98820.63
